sensor_id;sensor_type;location;lat;lon;timestamp;pressure;altitude;pressure_sealevel;temperature;humidity
61908;BME280;47864;52.526;19.672;2023-01-19T00:00:33;99581.97;;;2.23;100.00
61908;BME280;47864;52.526;19.672;2023-01-19T00:02:35;99602.97;;;2.12;100.00
61908;BME280;47864;52.526;19.672;2023-01-19T00:04:37;99609.41;;;1.97;100.00
61908;BME280;47864;52.526;19.672;2023-01-19T00:06:39;99583.25;;;1.74;100.00
61908;BME280;47864;52.526;19.672;2023-01-19T00:08:41;99609.50;;;1.84;100.00
61908;BME280;47864;52.526;19.672;2023-01-19T00:10:47;99567.13;;;1.47;100.00
61908;BME280;47864;52.526;19.672;2023-01-19T00:12:50;99547.84;;;1.26;100.00
61908;BME280;47864;52.526;19.672;2023-01-19T00:14:52;99618.66;;;1.67;100.00
61908;BME280;47864;52.526;19.672;2023-01-19T00:16:53;99624.25;;;1.63;100.00
61908;BME280;47864;52.526;19.672;2023-01-19T00:18:55;99619.75;;;1.65;100.00
61908;BME280;47864;52.526;19.672;2023-01-19T00:20:57;99596.56;;;1.49;100.00
61908;BME280;47864;52.526;19.672;2023-01-19T00:22:59;99621.38;;;1.66;100.00
61908;BME280;47864;52.526;19.672;2023-01-19T00:25:02;99615.00;;;1.70;100.00
61908;BME280;47864;52.526;19.672;2023-01-19T00:27:04;99622.34;;;1.76;100.00
61908;BME280;47864;52.526;19.672;2023-01-19T00:29:06;99631.25;;;1.73;100.00
61908;BME280;47864;52.526;19.672;2023-01-19T00:31:08;99627.72;;;1.63;100.00
61908;BME280;47864;52.526;19.672;2023-01-19T00:33:11;99632.22;;;1.61;100.00
61908;BME280;47864;52.526;19.672;2023-01-19T00:35:12;99632.69;;;1.66;100.00
61908;BME280;47864;52.526;19.672;2023-01-19T00:37:15;99645.63;;;1.68;100.00
61908;BME280;47864;52.526;19.672;2023-01-19T00:39:17;99644.22;;;1.64;100.00
61908;BME280;47864;52.526;19.672;2023-01-19T00:41:19;99646.00;;;1.63;100.00
61908;BME280;47864;52.526;19.672;2023-01-19T00:43:21;99651.56;;;1.59;100.00
61908;BME280;47864;52.526;19.672;2023-01-19T00:45:23;99656.78;;;1.59;100.00
61908;BME280;47864;52.526;19.672;2023-01-19T00:47:25;99664.53;;;1.60;100.00
61908;BME280;47864;52.526;19.672;2023-01-19T00:49:27;99662.03;;;1.70;100.00
61908;BME280;47864;52.526;19.672;2023-01-19T00:51:29;99652.88;;;1.53;100.00
61908;BME280;47864;52.526;19.672;2023-01-19T00:53:30;99687.72;;;1.65;100.00
61908;BME280;47864;52.526;19.672;2023-01-19T00:55:32;99659.63;;;1.44;100.00
61908;BME280;47864;52.526;19.672;2023-01-19T00:57:34;99700.88;;;1.63;100.00
61908;BME280;47864;52.526;19.672;2023-01-19T00:59:36;99674.94;;;1.49;100.00
61908;BME280;47864;52.526;19.672;2023-01-19T01:01:38;99702.56;;;1.64;100.00
61908;BME280;47864;52.526;19.672;2023-01-19T01:03:46;99701.47;;;1.67;100.00
61908;BME280;47864;52.526;19.672;2023-01-19T01:05:48;99697.19;;;1.66;100.00
61908;BME280;47864;52.526;19.672;2023-01-19T01:07:50;99707.44;;;1.69;100.00
61908;BME280;47864;52.526;19.672;2023-01-19T01:09:51;99692.78;;;1.66;100.00
61908;BME280;47864;52.526;19.672;2023-01-19T01:11:53;99703.91;;;1.81;100.00
61908;BME280;47864;52.526;19.672;2023-01-19T01:13:55;99703.53;;;1.97;100.00
61908;BME280;47864;52.526;19.672;2023-01-19T01:15:59;99695.47;;;1.88;100.00
61908;BME280;47864;52.526;19.672;2023-01-19T01:18:01;99690.56;;;1.84;100.00
61908;BME280;47864;52.526;19.672;2023-01-19T01:20:03;99701.63;;;1.87;100.00
61908;BME280;47864;52.526;19.672;2023-01-19T01:22:05;99699.72;;;1.89;100.00
61908;BME280;47864;52.526;19.672;2023-01-19T01:24:08;99703.66;;;1.95;100.00
61908;BME280;47864;52.526;19.672;2023-01-19T01:26:10;99701.75;;;1.86;100.00
61908;BME280;47864;52.526;19.672;2023-01-19T01:28:12;99697.47;;;1.85;100.00
61908;BME280;47864;52.526;19.672;2023-01-19T01:30:14;99690.69;;;1.94;100.00
61908;BME280;47864;52.526;19.672;2023-01-19T01:32:16;99686.91;;;1.98;100.00
61908;BME280;47864;52.526;19.672;2023-01-19T01:34:18;99670.72;;;2.04;100.00
61908;BME280;47864;52.526;19.672;2023-01-19T01:36:20;99672.16;;;2.19;100.00
61908;BME280;47864;52.526;19.672;2023-01-19T01:38:21;99688.19;;;2.25;100.00
61908;BME280;47864;52.526;19.672;2023-01-19T01:40:23;99653.16;;;2.06;100.00
61908;BME280;47864;52.526;19.672;2023-01-19T01:42:28;99683.66;;;2.27;100.00
61908;BME280;47864;52.526;19.672;2023-01-19T01:44:52;99694.25;;;2.26;100.00
61908;BME280;47864;52.526;19.672;2023-01-19T01:46:54;99697.94;;;2.23;100.00
61908;BME280;47864;52.526;19.672;2023-01-19T01:51:03;99698.66;;;2.25;100.00
61908;BME280;47864;52.526;19.672;2023-01-19T01:53:10;99692.47;;;2.26;100.00
61908;BME280;47864;52.526;19.672;2023-01-19T01:55:14;99665.25;;;2.18;100.00
61908;BME280;47864;52.526;19.672;2023-01-19T01:57:17;99696.25;;;2.34;100.00
61908;BME280;47864;52.526;19.672;2023-01-19T01:59:26;99686.41;;;2.37;100.00
61908;BME280;47864;52.526;19.672;2023-01-19T02:01:30;99684.63;;;2.38;100.00
61908;BME280;47864;52.526;19.672;2023-01-19T02:03:32;99685.78;;;2.45;100.00
61908;BME280;47864;52.526;19.672;2023-01-19T02:05:35;99663.78;;;2.36;100.00
61908;BME280;47864;52.526;19.672;2023-01-19T02:07:53;99682.06;;;2.47;100.00
61908;BME280;47864;52.526;19.672;2023-01-19T02:09:57;99675.56;;;2.42;100.00
61908;BME280;47864;52.526;19.672;2023-01-19T02:11:59;99652.84;;;2.31;100.00
61908;BME280;47864;52.526;19.672;2023-01-19T02:14:03;99666.97;;;2.40;100.00
61908;BME280;47864;52.526;19.672;2023-01-19T02:16:07;99668.09;;;2.37;100.00
61908;BME280;47864;52.526;19.672;2023-01-19T02:18:09;99672.38;;;2.38;100.00
61908;BME280;47864;52.526;19.672;2023-01-19T02:20:11;99677.22;;;2.32;100.00
61908;BME280;47864;52.526;19.672;2023-01-19T02:22:25;99655.16;;;2.13;100.00
61908;BME280;47864;52.526;19.672;2023-01-19T02:24:31;99681.53;;;2.21;100.00
61908;BME280;47864;52.526;19.672;2023-01-19T02:26:44;99658.47;;;1.82;100.00
61908;BME280;47864;52.526;19.672;2023-01-19T02:29:02;99669.75;;;1.82;100.00
61908;BME280;47864;52.526;19.672;2023-01-19T02:31:05;99670.22;;;1.65;100.00
61908;BME280;47864;52.526;19.672;2023-01-19T02:33:07;99651.94;;;1.54;100.00
61908;BME280;47864;52.526;19.672;2023-01-19T02:35:10;99669.19;;;1.79;100.00
61908;BME280;47864;52.526;19.672;2023-01-19T02:37:14;99667.50;;;1.67;100.00
61908;BME280;47864;52.526;19.672;2023-01-19T02:39:19;99670.22;;;1.54;100.00
61908;BME280;47864;52.526;19.672;2023-01-19T02:41:26;99663.91;;;1.57;100.00
61908;BME280;47864;52.526;19.672;2023-01-19T02:43:29;99661.78;;;1.62;100.00
61908;BME280;47864;52.526;19.672;2023-01-19T02:45:31;99662.13;;;1.57;100.00
61908;BME280;47864;52.526;19.672;2023-01-19T02:47:37;99645.13;;;1.40;100.00
61908;BME280;47864;52.526;19.672;2023-01-19T02:49:39;99666.88;;;1.52;100.00
61908;BME280;47864;52.526;19.672;2023-01-19T02:51:42;99676.88;;;1.58;100.00
61908;BME280;47864;52.526;19.672;2023-01-19T02:56:22;99677.34;;;1.52;100.00
61908;BME280;47864;52.526;19.672;2023-01-19T02:58:39;99606.47;;;1.10;100.00
61908;BME280;47864;52.526;19.672;2023-01-19T03:00:52;99666.88;;;1.52;100.00
61908;BME280;47864;52.526;19.672;2023-01-19T03:03:07;99676.06;;;1.69;100.00
61908;BME280;47864;52.526;19.672;2023-01-19T03:08:21;99667.84;;;1.73;100.00
61908;BME280;47864;52.526;19.672;2023-01-19T03:10:37;99678.06;;;1.54;100.00
61908;BME280;47864;52.526;19.672;2023-01-19T03:14:46;99669.63;;;1.62;100.00
61908;BME280;47864;52.526;19.672;2023-01-19T03:16:56;99673.66;;;1.55;100.00
61908;BME280;47864;52.526;19.672;2023-01-19T03:19:08;99673.31;;;1.59;100.00
61908;BME280;47864;52.526;19.672;2023-01-19T03:21:15;99674.88;;;1.62;100.00
61908;BME280;47864;52.526;19.672;2023-01-19T03:23:19;99677.38;;;1.74;100.00
61908;BME280;47864;52.526;19.672;2023-01-19T03:25:23;99672.59;;;1.68;100.00
61908;BME280;47864;52.526;19.672;2023-01-19T03:27:28;99679.25;;;1.61;100.00
61908;BME280;47864;52.526;19.672;2023-01-19T03:29:33;99658.31;;;1.50;100.00
61908;BME280;47864;52.526;19.672;2023-01-19T03:31:39;99663.81;;;1.69;100.00
61908;BME280;47864;52.526;19.672;2023-01-19T03:33:46;99675.00;;;1.82;100.00
61908;BME280;47864;52.526;19.672;2023-01-19T03:35:52;99688.44;;;1.89;100.00
61908;BME280;47864;52.526;19.672;2023-01-19T03:37:57;99692.13;;;1.98;100.00
61908;BME280;47864;52.526;19.672;2023-01-19T03:40:00;99689.53;;;1.98;100.00
61908;BME280;47864;52.526;19.672;2023-01-19T03:42:09;99689.25;;;2.01;100.00
61908;BME280;47864;52.526;19.672;2023-01-19T03:44:12;99694.50;;;2.01;100.00
61908;BME280;47864;52.526;19.672;2023-01-19T03:46:15;99682.00;;;1.93;100.00
61908;BME280;47864;52.526;19.672;2023-01-19T03:48:19;99665.00;;;1.76;100.00
61908;BME280;47864;52.526;19.672;2023-01-19T03:50:27;99660.47;;;1.67;100.00
61908;BME280;47864;52.526;19.672;2023-01-19T03:52:30;99652.91;;;1.64;100.00
61908;BME280;47864;52.526;19.672;2023-01-19T03:54:32;99655.63;;;1.63;100.00
61908;BME280;47864;52.526;19.672;2023-01-19T03:56:35;99681.16;;;1.81;100.00
61908;BME280;47864;52.526;19.672;2023-01-19T03:58:37;99683.31;;;1.99;100.00
61908;BME280;47864;52.526;19.672;2023-01-19T04:00:39;99687.50;;;2.12;100.00
61908;BME280;47864;52.526;19.672;2023-01-19T04:02:41;99686.16;;;2.07;100.00
61908;BME280;47864;52.526;19.672;2023-01-19T04:04:43;99698.28;;;2.08;100.00
61908;BME280;47864;52.526;19.672;2023-01-19T04:06:44;99676.91;;;1.91;100.00
61908;BME280;47864;52.526;19.672;2023-01-19T04:08:48;99699.50;;;1.92;100.00
61908;BME280;47864;52.526;19.672;2023-01-19T04:10:50;99697.47;;;1.85;100.00
61908;BME280;47864;52.526;19.672;2023-01-19T04:12:59;99697.09;;;1.78;100.00
61908;BME280;47864;52.526;19.672;2023-01-19T04:15:02;99708.28;;;1.80;100.00
61908;BME280;47864;52.526;19.672;2023-01-19T04:17:04;99719.44;;;1.82;100.00
61908;BME280;47864;52.526;19.672;2023-01-19T04:19:06;99712.53;;;1.81;100.00
61908;BME280;47864;52.526;19.672;2023-01-19T04:21:07;99689.00;;;1.59;100.00
61908;BME280;47864;52.526;19.672;2023-01-19T04:23:09;99712.75;;;1.67;100.00
61908;BME280;47864;52.526;19.672;2023-01-19T04:25:11;99707.91;;;1.63;100.00
61908;BME280;47864;52.526;19.672;2023-01-19T04:27:13;99686.91;;;1.40;100.00
61908;BME280;47864;52.526;19.672;2023-01-19T04:29:15;99721.75;;;1.52;100.00
61908;BME280;47864;52.526;19.672;2023-01-19T04:31:17;99703.09;;;1.45;100.00
61908;BME280;47864;52.526;19.672;2023-01-19T04:33:20;99718.94;;;1.55;100.00
61908;BME280;47864;52.526;19.672;2023-01-19T04:35:22;99735.81;;;1.62;100.00
61908;BME280;47864;52.526;19.672;2023-01-19T04:37:24;99734.84;;;1.52;100.00
61908;BME280;47864;52.526;19.672;2023-01-19T04:39:25;99736.50;;;1.53;100.00
61908;BME280;47864;52.526;19.672;2023-01-19T04:41:27;99735.78;;;1.51;100.00
61908;BME280;47864;52.526;19.672;2023-01-19T04:43:31;99740.28;;;1.49;100.00
61908;BME280;47864;52.526;19.672;2023-01-19T04:45:33;99744.56;;;1.50;100.00
61908;BME280;47864;52.526;19.672;2023-01-19T04:47:35;99743.25;;;1.44;100.00
61908;BME280;47864;52.526;19.672;2023-01-19T04:49:37;99755.47;;;1.44;100.00
61908;BME280;47864;52.526;19.672;2023-01-19T04:51:38;99722.28;;;1.22;100.00
61908;BME280;47864;52.526;19.672;2023-01-19T04:53:40;99757.03;;;1.46;100.00
61908;BME280;47864;52.526;19.672;2023-01-19T04:55:42;99763.22;;;1.57;100.00
61908;BME280;47864;52.526;19.672;2023-01-19T04:57:44;99758.97;;;1.56;100.00
61908;BME280;47864;52.526;19.672;2023-01-19T04:59:46;99759.44;;;1.61;100.00
61908;BME280;47864;52.526;19.672;2023-01-19T05:01:48;99752.69;;;1.69;100.00
61908;BME280;47864;52.526;19.672;2023-01-19T05:03:50;99700.00;;;1.40;100.00
61908;BME280;47864;52.526;19.672;2023-01-19T05:05:52;99755.69;;;1.76;100.00
61908;BME280;47864;52.526;19.672;2023-01-19T05:07:54;99726.41;;;1.60;100.00
61908;BME280;47864;52.526;19.672;2023-01-19T05:09:55;99757.25;;;1.78;100.00
61908;BME280;47864;52.526;19.672;2023-01-19T05:11:57;99699.88;;;1.42;100.00
61908;BME280;47864;52.526;19.672;2023-01-19T05:13:59;99764.84;;;1.81;100.00
61908;BME280;47864;52.526;19.672;2023-01-19T05:16:01;99768.06;;;1.85;100.00
61908;BME280;47864;52.526;19.672;2023-01-19T05:18:03;99749.13;;;1.70;100.00
61908;BME280;47864;52.526;19.672;2023-01-19T05:20:05;99770.53;;;1.75;100.00
61908;BME280;47864;52.526;19.672;2023-01-19T05:22:07;99762.09;;;1.72;100.00
61908;BME280;47864;52.526;19.672;2023-01-19T05:24:09;99777.56;;;1.86;100.00
61908;BME280;47864;52.526;19.672;2023-01-19T05:26:11;99777.47;;;1.87;100.00
61908;BME280;47864;52.526;19.672;2023-01-19T05:28:13;99783.63;;;1.86;100.00
61908;BME280;47864;52.526;19.672;2023-01-19T05:30:15;99791.63;;;1.96;100.00
61908;BME280;47864;52.526;19.672;2023-01-19T05:32:17;99777.81;;;1.94;100.00
61908;BME280;47864;52.526;19.672;2023-01-19T05:34:18;99790.31;;;2.02;100.00
61908;BME280;47864;52.526;19.672;2023-01-19T05:36:20;99795.66;;;2.00;100.00
61908;BME280;47864;52.526;19.672;2023-01-19T05:38:22;99798.38;;;1.87;100.00
61908;BME280;47864;52.526;19.672;2023-01-19T05:40:35;99803.72;;;1.86;100.00
61908;BME280;47864;52.526;19.672;2023-01-19T05:42:37;99811.09;;;1.92;100.00
61908;BME280;47864;52.526;19.672;2023-01-19T05:44:39;99814.75;;;1.89;100.00
61908;BME280;47864;52.526;19.672;2023-01-19T05:46:41;99818.41;;;1.76;100.00
61908;BME280;47864;52.526;19.672;2023-01-19T05:48:43;99818.66;;;1.73;100.00
61908;BME280;47864;52.526;19.672;2023-01-19T05:50:45;99800.06;;;1.53;100.00
61908;BME280;47864;52.526;19.672;2023-01-19T05:52:47;99831.34;;;1.66;100.00
61908;BME280;47864;52.526;19.672;2023-01-19T05:54:48;99806.06;;;1.43;100.00
61908;BME280;47864;52.526;19.672;2023-01-19T05:56:50;99833.19;;;1.53;100.00
61908;BME280;47864;52.526;19.672;2023-01-19T05:58:52;99846.31;;;1.64;100.00
61908;BME280;47864;52.526;19.672;2023-01-19T06:00:54;99822.28;;;1.59;100.00
61908;BME280;47864;52.526;19.672;2023-01-19T06:02:56;99816.78;;;1.51;100.00
61908;BME280;47864;52.526;19.672;2023-01-19T06:04:59;99839.19;;;1.66;100.00
61908;BME280;47864;52.526;19.672;2023-01-19T06:07:01;99834.94;;;1.76;100.00
61908;BME280;47864;52.526;19.672;2023-01-19T06:09:03;99837.59;;;1.87;100.00
61908;BME280;47864;52.526;19.672;2023-01-19T06:11:05;99847.69;;;1.81;100.00
61908;BME280;47864;52.526;19.672;2023-01-19T06:13:07;99847.81;;;1.90;100.00
61908;BME280;47864;52.526;19.672;2023-01-19T06:15:09;99854.53;;;2.06;100.00
61908;BME280;47864;52.526;19.672;2023-01-19T06:17:11;99863.66;;;2.00;100.00
61908;BME280;47864;52.526;19.672;2023-01-19T06:19:13;99836.69;;;1.65;100.00
61908;BME280;47864;52.526;19.672;2023-01-19T06:21:14;99863.03;;;1.85;100.00
61908;BME280;47864;52.526;19.672;2023-01-19T06:23:16;99853.28;;;1.87;100.00
61908;BME280;47864;52.526;19.672;2023-01-19T06:25:18;99875.06;;;1.99;100.00
61908;BME280;47864;52.526;19.672;2023-01-19T06:27:20;99876.25;;;1.95;100.00
61908;BME280;47864;52.526;19.672;2023-01-19T06:29:22;99880.88;;;1.91;100.00
61908;BME280;47864;52.526;19.672;2023-01-19T06:31:23;99861.81;;;1.78;100.00
61908;BME280;47864;52.526;19.672;2023-01-19T06:33:25;99889.34;;;1.95;100.00
61908;BME280;47864;52.526;19.672;2023-01-19T06:35:27;99893.06;;;2.04;100.00
61908;BME280;47864;52.526;19.672;2023-01-19T06:37:29;99890.31;;;2.05;100.00
61908;BME280;47864;52.526;19.672;2023-01-19T06:39:31;99898.28;;;2.04;100.00
61908;BME280;47864;52.526;19.672;2023-01-19T06:41:33;99903.72;;;2.01;100.00
61908;BME280;47864;52.526;19.672;2023-01-19T06:43:35;99911.56;;;2.01;100.00
61908;BME280;47864;52.526;19.672;2023-01-19T06:45:37;99917.06;;;1.98;100.00
61908;BME280;47864;52.526;19.672;2023-01-19T06:47:39;99920.31;;;2.12;100.00
61908;BME280;47864;52.526;19.672;2023-01-19T06:49:41;99920.19;;;2.14;100.00
61908;BME280;47864;52.526;19.672;2023-01-19T06:51:42;99929.31;;;2.08;100.00
61908;BME280;47864;52.526;19.672;2023-01-19T06:53:44;99929.03;;;2.00;100.00
61908;BME280;47864;52.526;19.672;2023-01-19T06:55:46;99926.22;;;2.03;100.00
61908;BME280;47864;52.526;19.672;2023-01-19T06:57:57;99923.59;;;2.03;100.00
61908;BME280;47864;52.526;19.672;2023-01-19T06:59:59;99926.81;;;2.07;100.00
61908;BME280;47864;52.526;19.672;2023-01-19T07:02:01;99921.25;;;2.11;100.00
61908;BME280;47864;52.526;19.672;2023-01-19T07:04:23;99915.13;;;2.00;100.00
61908;BME280;47864;52.526;19.672;2023-01-19T07:06:25;99918.00;;;2.08;100.00
61908;BME280;47864;52.526;19.672;2023-01-19T07:08:30;99901.91;;;1.90;100.00
61908;BME280;47864;52.526;19.672;2023-01-19T07:10:32;99924.94;;;1.85;100.00
61908;BME280;47864;52.526;19.672;2023-01-19T07:12:55;99921.81;;;2.04;100.00
61908;BME280;47864;52.526;19.672;2023-01-19T07:14:57;99923.06;;;2.22;100.00
61908;BME280;47864;52.526;19.672;2023-01-19T07:16:59;99924.97;;;2.20;100.00
61908;BME280;47864;52.526;19.672;2023-01-19T07:19:01;99925.91;;;2.19;100.00
61908;BME280;47864;52.526;19.672;2023-01-19T07:21:04;99906.66;;;2.20;100.00
61908;BME280;47864;52.526;19.672;2023-01-19T07:23:05;99916.88;;;2.23;100.00
61908;BME280;47864;52.526;19.672;2023-01-19T07:25:08;99902.31;;;1.97;100.00
61908;BME280;47864;52.526;19.672;2023-01-19T07:27:10;99901.94;;;2.01;100.00
61908;BME280;47864;52.526;19.672;2023-01-19T07:29:12;99924.84;;;2.21;100.00
61908;BME280;47864;52.526;19.672;2023-01-19T07:31:14;99929.03;;;2.35;100.00
61908;BME280;47864;52.526;19.672;2023-01-19T07:33:16;99912.25;;;2.26;100.00
61908;BME280;47864;52.526;19.672;2023-01-19T07:35:18;99912.25;;;2.26;100.00
61908;BME280;47864;52.526;19.672;2023-01-19T07:37:20;99883.56;;;2.14;100.00
61908;BME280;47864;52.526;19.672;2023-01-19T07:39:22;99909.53;;;2.28;100.00
61908;BME280;47864;52.526;19.672;2023-01-19T07:41:24;99936.47;;;2.52;100.00
61908;BME280;47864;52.526;19.672;2023-01-19T07:43:26;99938.13;;;2.53;100.00
61908;BME280;47864;52.526;19.672;2023-01-19T07:45:27;99933.50;;;2.46;100.00
61908;BME280;47864;52.526;19.672;2023-01-19T07:47:29;99912.19;;;2.50;100.00
61908;BME280;47864;52.526;19.672;2023-01-19T07:49:31;99926.84;;;2.53;100.00
61908;BME280;47864;52.526;19.672;2023-01-19T07:51:33;99937.78;;;2.58;100.00
61908;BME280;47864;52.526;19.672;2023-01-19T07:53:35;99943.25;;;2.55;100.00
61908;BME280;47864;52.526;19.672;2023-01-19T07:55:37;99915.50;;;2.30;100.00
61908;BME280;47864;52.526;19.672;2023-01-19T07:57:39;99938.94;;;2.43;100.00
61908;BME280;47864;52.526;19.672;2023-01-19T07:59:41;99958.56;;;2.48;100.00
61908;BME280;47864;52.526;19.672;2023-01-19T08:01:42;99954.06;;;2.50;100.00
61908;BME280;47864;52.526;19.672;2023-01-19T08:03:46;99960.22;;;2.38;100.00
61908;BME280;47864;52.526;19.672;2023-01-19T08:05:50;99958.78;;;2.34;100.00
61908;BME280;47864;52.526;19.672;2023-01-19T08:07:53;99942.94;;;2.24;100.00
61908;BME280;47864;52.526;19.672;2023-01-19T08:09:54;99961.13;;;2.26;100.00
61908;BME280;47864;52.526;19.672;2023-01-19T08:11:56;99963.91;;;2.36;100.00
61908;BME280;47864;52.526;19.672;2023-01-19T08:13:58;99956.78;;;2.38;100.00
61908;BME280;47864;52.526;19.672;2023-01-19T08:16:00;99959.25;;;2.39;100.00
61908;BME280;47864;52.526;19.672;2023-01-19T08:18:03;99963.06;;;2.35;100.00
61908;BME280;47864;52.526;19.672;2023-01-19T08:20:05;99962.69;;;2.28;100.00
61908;BME280;47864;52.526;19.672;2023-01-19T08:22:08;99958.72;;;2.23;100.00
61908;BME280;47864;52.526;19.672;2023-01-19T08:24:16;99965.31;;;2.28;100.00
61908;BME280;47864;52.526;19.672;2023-01-19T08:26:21;99973.38;;;2.25;100.00
61908;BME280;47864;52.526;19.672;2023-01-19T08:28:26;99975.44;;;2.33;100.00
61908;BME280;47864;52.526;19.672;2023-01-19T08:30:28;99970.44;;;2.30;100.00
61908;BME280;47864;52.526;19.672;2023-01-19T08:32:29;99965.41;;;2.27;100.00
61908;BME280;47864;52.526;19.672;2023-01-19T08:34:31;99975.59;;;2.43;100.00
61908;BME280;47864;52.526;19.672;2023-01-19T08:36:33;99970.66;;;2.27;100.00
61908;BME280;47864;52.526;19.672;2023-01-19T08:38:35;99961.63;;;2.31;100.00
61908;BME280;47864;52.526;19.672;2023-01-19T08:40:39;99963.03;;;2.24;100.00
61908;BME280;47864;52.526;19.672;2023-01-19T08:42:41;99947.06;;;2.16;100.00
61908;BME280;47864;52.526;19.672;2023-01-19T08:44:43;99966.16;;;2.40;100.00
61908;BME280;47864;52.526;19.672;2023-01-19T08:46:58;99972.97;;;2.43;100.00
61908;BME280;47864;52.526;19.672;2023-01-19T08:49:00;99972.25;;;2.41;100.00
61908;BME280;47864;52.526;19.672;2023-01-19T08:51:02;99938.03;;;2.20;100.00
61908;BME280;47864;52.526;19.672;2023-01-19T08:53:04;99967.94;;;2.40;100.00
61908;BME280;47864;52.526;19.672;2023-01-19T08:55:06;99972.88;;;2.55;100.00
61908;BME280;47864;52.526;19.672;2023-01-19T08:57:09;99974.34;;;2.71;100.00
61908;BME280;47864;52.526;19.672;2023-01-19T08:59:10;99945.97;;;2.42;100.00
61908;BME280;47864;52.526;19.672;2023-01-19T09:01:14;99973.84;;;2.54;100.00
61908;BME280;47864;52.526;19.672;2023-01-19T09:03:17;99972.91;;;2.66;100.00
61908;BME280;47864;52.526;19.672;2023-01-19T09:05:19;99966.22;;;2.51;100.00
61908;BME280;47864;52.526;19.672;2023-01-19T09:07:21;99956.78;;;2.49;100.00
61908;BME280;47864;52.526;19.672;2023-01-19T09:09:23;99968.47;;;2.56;100.00
61908;BME280;47864;52.526;19.672;2023-01-19T09:11:25;99978.50;;;2.62;100.00
61908;BME280;47864;52.526;19.672;2023-01-19T09:13:26;99943.81;;;2.47;100.00
61908;BME280;47864;52.526;19.672;2023-01-19T09:15:29;99982.31;;;2.80;100.00
61908;BME280;47864;52.526;19.672;2023-01-19T09:17:31;99979.84;;;2.79;100.00
61908;BME280;47864;52.526;19.672;2023-01-19T09:19:34;99986.97;;;2.77;100.00
61908;BME280;47864;52.526;19.672;2023-01-19T09:21:36;99969.34;;;2.67;100.00
61908;BME280;47864;52.526;19.672;2023-01-19T09:23:37;99951.59;;;2.60;100.00
61908;BME280;47864;52.526;19.672;2023-01-19T09:25:41;99966.09;;;2.64;100.00
61908;BME280;47864;52.526;19.672;2023-01-19T09:27:42;99979.44;;;2.72;100.00
61908;BME280;47864;52.526;19.672;2023-01-19T09:29:44;99966.81;;;2.66;100.00
61908;BME280;47864;52.526;19.672;2023-01-19T09:31:46;99964.47;;;2.74;100.00
61908;BME280;47864;52.526;19.672;2023-01-19T09:33:48;99956.97;;;2.81;100.00
61908;BME280;47864;52.526;19.672;2023-01-19T09:35:50;99980.53;;;2.81;100.00
61908;BME280;47864;52.526;19.672;2023-01-19T09:37:52;99964.72;;;2.82;100.00
61908;BME280;47864;52.526;19.672;2023-01-19T09:39:53;99992.69;;;2.82;100.00
61908;BME280;47864;52.526;19.672;2023-01-19T09:42:50;99986.75;;;2.80;100.00
61908;BME280;47864;52.526;19.672;2023-01-19T09:44:44;99987.34;;;2.83;100.00
61908;BME280;47864;52.526;19.672;2023-01-19T09:46:46;99976.88;;;2.94;100.00
61908;BME280;47864;52.526;19.672;2023-01-19T09:50:58;99963.91;;;3.15;100.00
61908;BME280;47864;52.526;19.672;2023-01-19T09:53:11;99975.47;;;3.35;100.00
61908;BME280;47864;52.526;19.672;2023-01-19T09:55:25;99973.41;;;3.38;100.00
61908;BME280;47864;52.526;19.672;2023-01-19T09:57:27;99960.78;;;3.32;100.00
61908;BME280;47864;52.526;19.672;2023-01-19T09:59:30;99971.50;;;3.40;100.00
61908;BME280;47864;52.526;19.672;2023-01-19T10:03:43;99963.53;;;3.53;100.00
61908;BME280;47864;52.526;19.672;2023-01-19T10:05:53;99965.75;;;3.69;100.00
61908;BME280;47864;52.526;19.672;2023-01-19T10:08:24;99960.75;;;3.66;100.00
61908;BME280;47864;52.526;19.672;2023-01-19T10:10:29;99952.31;;;3.62;100.00
61908;BME280;47864;52.526;19.672;2023-01-19T10:12:35;99953.00;;;3.75;100.00
61908;BME280;47864;52.526;19.672;2023-01-19T10:14:49;99949.34;;;3.88;100.00
61908;BME280;47864;52.526;19.672;2023-01-19T10:19:35;99945.75;;;4.00;100.00
61908;BME280;47864;52.526;19.672;2023-01-19T10:21:41;99949.25;;;3.89;100.00
61908;BME280;47864;52.526;19.672;2023-01-19T10:23:56;99942.09;;;3.91;100.00
61908;BME280;47864;52.526;19.672;2023-01-19T10:26:04;99951.84;;;4.00;100.00
61908;BME280;47864;52.526;19.672;2023-01-19T10:28:07;99958.56;;;3.82;100.00
61908;BME280;47864;52.526;19.672;2023-01-19T10:30:25;99963.38;;;3.66;100.00
61908;BME280;47864;52.526;19.672;2023-01-19T10:32:32;99952.38;;;3.72;100.00
61908;BME280;47864;52.526;19.672;2023-01-19T10:34:35;99961.06;;;3.95;100.00
61908;BME280;47864;52.526;19.672;2023-01-19T10:36:38;99964.53;;;3.84;100.00
61908;BME280;47864;52.526;19.672;2023-01-19T10:38:40;99969.91;;;3.82;100.00
61908;BME280;47864;52.526;19.672;2023-01-19T10:40:56;99946.97;;;3.53;100.00
61908;BME280;47864;52.526;19.672;2023-01-19T10:42:59;99962.44;;;3.56;100.00
61908;BME280;47864;52.526;19.672;2023-01-19T10:45:01;99932.56;;;3.14;100.00
61908;BME280;47864;52.526;19.672;2023-01-19T10:47:04;99969.63;;;3.42;100.00
61908;BME280;47864;52.526;19.672;2023-01-19T10:49:34;99971.25;;;3.55;100.00
61908;BME280;47864;52.526;19.672;2023-01-19T10:51:45;99957.69;;;3.50;100.00
61908;BME280;47864;52.526;19.672;2023-01-19T10:54:02;99969.84;;;3.51;100.00
61908;BME280;47864;52.526;19.672;2023-01-19T10:56:19;99973.19;;;3.41;100.00
61908;BME280;47864;52.526;19.672;2023-01-19T10:58:29;99967.56;;;3.46;100.00
61908;BME280;47864;52.526;19.672;2023-01-19T11:00:37;99968.28;;;3.48;100.00
61908;BME280;47864;52.526;19.672;2023-01-19T11:02:48;99971.84;;;3.58;100.00
61908;BME280;47864;52.526;19.672;2023-01-19T11:04:54;99978.06;;;3.57;100.00